sensor_id;sensor_type;location;lat;lon;timestamp;P1;durP1;ratioP1;P2;durP2;ratioP2
22490;SDS011;11412;50.802;4.350;2022-07-15T00:02:04;5.18;;;2.20;;
22490;SDS011;11412;50.802;4.350;2022-07-15T00:04:31;5.93;;;2.08;;
22490;SDS011;11412;50.802;4.350;2022-07-15T00:06:57;6.72;;;2.17;;
22490;SDS011;11412;50.802;4.350;2022-07-15T00:09:22;7.32;;;2.25;;
22490;SDS011;11412;50.802;4.350;2022-07-15T00:12:08;4.35;;;1.80;;
22490;SDS011;11412;50.802;4.350;2022-07-15T00:14:34;6.18;;;2.20;;
22490;SDS011;11412;50.802;4.350;2022-07-15T00:17:00;11.45;;;2.30;;
22490;SDS011;11412;50.802;4.350;2022-07-15T00:19:26;7.22;;;2.47;;
22490;SDS011;11412;50.802;4.350;2022-07-15T00:21:52;2.65;;;1.88;;
22490;SDS011;11412;50.802;4.350;2022-07-15T00:24:18;5.70;;;2.72;;
22490;SDS011;11412;50.802;4.350;2022-07-15T00:26:44;8.52;;;2.50;;
22490;SDS011;11412;50.802;4.350;2022-07-15T00:29:09;6.03;;;2.20;;
22490;SDS011;11412;50.802;4.350;2022-07-15T00:31:35;4.75;;;1.80;;
22490;SDS011;11412;50.802;4.350;2022-07-15T00:34:01;4.68;;;2.45;;
22490;SDS011;11412;50.802;4.350;2022-07-15T00:36:27;5.78;;;2.30;;
22490;SDS011;11412;50.802;4.350;2022-07-15T00:38:53;7.70;;;2.00;;
22490;SDS011;11412;50.802;4.350;2022-07-15T00:41:19;6.55;;;1.73;;
22490;SDS011;11412;50.802;4.350;2022-07-15T00:43:44;9.02;;;2.40;;
22490;SDS011;11412;50.802;4.350;2022-07-15T00:46:14;8.27;;;2.47;;
22490;SDS011;11412;50.802;4.350;2022-07-15T00:48:41;6.38;;;2.40;;
22490;SDS011;11412;50.802;4.350;2022-07-15T00:51:06;3.08;;;2.00;;
22490;SDS011;11412;50.802;4.350;2022-07-15T00:53:32;6.07;;;2.20;;
22490;SDS011;11412;50.802;4.350;2022-07-15T00:56:00;8.38;;;2.35;;
22490;SDS011;11412;50.802;4.350;2022-07-15T00:58:27;5.00;;;2.40;;
22490;SDS011;11412;50.802;4.350;2022-07-15T01:00:56;3.95;;;1.95;;
22490;SDS011;11412;50.802;4.350;2022-07-15T01:03:23;3.70;;;1.60;;
22490;SDS011;11412;50.802;4.350;2022-07-15T01:05:52;5.43;;;2.25;;
22490;SDS011;11412;50.802;4.350;2022-07-15T01:08:19;5.97;;;2.40;;
22490;SDS011;11412;50.802;4.350;2022-07-15T01:10:46;11.52;;;2.70;;
22490;SDS011;11412;50.802;4.350;2022-07-15T01:13:12;4.88;;;2.17;;
22490;SDS011;11412;50.802;4.350;2022-07-15T01:15:38;10.05;;;2.60;;
22490;SDS011;11412;50.802;4.350;2022-07-15T01:18:04;5.95;;;2.38;;
22490;SDS011;11412;50.802;4.350;2022-07-15T01:20:30;8.80;;;2.90;;
22490;SDS011;11412;50.802;4.350;2022-07-15T01:22:56;8.30;;;2.95;;
22490;SDS011;11412;50.802;4.350;2022-07-15T01:25:22;7.05;;;2.35;;
22490;SDS011;11412;50.802;4.350;2022-07-15T01:27:48;7.80;;;2.17;;
22490;SDS011;11412;50.802;4.350;2022-07-15T01:30:13;5.13;;;2.38;;
22490;SDS011;11412;50.802;4.350;2022-07-15T01:32:39;4.43;;;1.98;;
22490;SDS011;11412;50.802;4.350;2022-07-15T01:35:05;7.78;;;2.30;;
22490;SDS011;11412;50.802;4.350;2022-07-15T01:37:31;6.20;;;2.13;;
22490;SDS011;11412;50.802;4.350;2022-07-15T01:39:57;4.90;;;2.00;;
22490;SDS011;11412;50.802;4.350;2022-07-15T01:42:22;3.92;;;2.20;;
22490;SDS011;11412;50.802;4.350;2022-07-15T01:44:48;6.13;;;2.42;;
22490;SDS011;11412;50.802;4.350;2022-07-15T01:47:14;9.30;;;2.47;;
22490;SDS011;11412;50.802;4.350;2022-07-15T01:49:39;7.45;;;2.10;;
22490;SDS011;11412;50.802;4.350;2022-07-15T01:52:05;5.15;;;2.38;;
22490;SDS011;11412;50.802;4.350;2022-07-15T01:54:34;7.97;;;2.20;;
22490;SDS011;11412;50.802;4.350;2022-07-15T01:57:00;8.98;;;3.00;;
22490;SDS011;11412;50.802;4.350;2022-07-15T01:59:26;6.55;;;2.40;;
22490;SDS011;11412;50.802;4.350;2022-07-15T02:01:53;6.88;;;2.53;;
22490;SDS011;11412;50.802;4.350;2022-07-15T02:04:22;5.40;;;2.50;;
22490;SDS011;11412;50.802;4.350;2022-07-15T02:06:48;5.15;;;2.67;;
22490;SDS011;11412;50.802;4.350;2022-07-15T02:09:14;5.80;;;2.20;;
22490;SDS011;11412;50.802;4.350;2022-07-15T02:11:40;9.60;;;2.63;;
22490;SDS011;11412;50.802;4.350;2022-07-15T02:14:06;9.43;;;2.88;;
22490;SDS011;11412;50.802;4.350;2022-07-15T02:16:33;8.07;;;3.00;;
22490;SDS011;11412;50.802;4.350;2022-07-15T02:18:59;6.05;;;2.90;;
22490;SDS011;11412;50.802;4.350;2022-07-15T02:21:25;10.25;;;2.45;;
22490;SDS011;11412;50.802;4.350;2022-07-15T02:23:52;6.07;;;2.22;;
22490;SDS011;11412;50.802;4.350;2022-07-15T02:26:19;5.30;;;2.50;;
22490;SDS011;11412;50.802;4.350;2022-07-15T02:28:45;6.95;;;2.33;;
22490;SDS011;11412;50.802;4.350;2022-07-15T02:31:12;7.10;;;2.15;;
22490;SDS011;11412;50.802;4.350;2022-07-15T02:33:38;6.00;;;2.40;;
22490;SDS011;11412;50.802;4.350;2022-07-15T02:36:04;7.75;;;2.33;;
22490;SDS011;11412;50.802;4.350;2022-07-15T02:38:30;7.50;;;2.30;;
22490;SDS011;11412;50.802;4.350;2022-07-15T02:40:56;9.05;;;2.40;;
22490;SDS011;11412;50.802;4.350;2022-07-15T02:43:22;2.45;;;1.67;;
22490;SDS011;11412;50.802;4.350;2022-07-15T02:45:47;6.35;;;2.15;;
22490;SDS011;11412;50.802;4.350;2022-07-15T02:48:13;7.13;;;1.80;;
22490;SDS011;11412;50.802;4.350;2022-07-15T02:50:40;5.20;;;2.00;;
22490;SDS011;11412;50.802;4.350;2022-07-15T02:53:06;9.88;;;2.53;;
22490;SDS011;11412;50.802;4.350;2022-07-15T02:55:32;5.75;;;1.75;;
22490;SDS011;11412;50.802;4.350;2022-07-15T02:57:58;5.60;;;2.15;;
22490;SDS011;11412;50.802;4.350;2022-07-15T03:00:23;5.53;;;1.85;;
22490;SDS011;11412;50.802;4.350;2022-07-15T03:02:49;4.88;;;1.92;;
22490;SDS011;11412;50.802;4.350;2022-07-15T03:05:15;6.85;;;2.10;;
22490;SDS011;11412;50.802;4.350;2022-07-15T03:07:42;3.40;;;1.73;;
22490;SDS011;11412;50.802;4.350;2022-07-15T03:10:09;7.15;;;1.42;;
22490;SDS011;11412;50.802;4.350;2022-07-15T03:12:35;6.70;;;2.10;;
22490;SDS011;11412;50.802;4.350;2022-07-15T03:15:01;7.63;;;2.35;;
22490;SDS011;11412;50.802;4.350;2022-07-15T03:17:28;5.13;;;2.10;;
22490;SDS011;11412;50.802;4.350;2022-07-15T03:19:54;7.82;;;2.22;;
22490;SDS011;11412;50.802;4.350;2022-07-15T03:22:23;3.90;;;2.25;;
22490;SDS011;11412;50.802;4.350;2022-07-15T03:24:50;3.85;;;1.73;;
22490;SDS011;11412;50.802;4.350;2022-07-15T03:27:16;5.53;;;2.10;;
22490;SDS011;11412;50.802;4.350;2022-07-15T03:29:42;10.43;;;2.25;;
22490;SDS011;11412;50.802;4.350;2022-07-15T03:32:08;4.53;;;2.20;;
22490;SDS011;11412;50.802;4.350;2022-07-15T03:34:35;6.10;;;2.38;;
22490;SDS011;11412;50.802;4.350;2022-07-15T03:37:02;5.35;;;2.47;;
22490;SDS011;11412;50.802;4.350;2022-07-15T03:39:27;4.93;;;2.55;;
22490;SDS011;11412;50.802;4.350;2022-07-15T03:41:53;5.05;;;2.50;;
22490;SDS011;11412;50.802;4.350;2022-07-15T03:44:19;8.20;;;2.85;;
22490;SDS011;11412;50.802;4.350;2022-07-15T03:46:44;3.92;;;2.38;;
22490;SDS011;11412;50.802;4.350;2022-07-15T03:49:11;5.03;;;2.50;;
22490;SDS011;11412;50.802;4.350;2022-07-15T03:51:37;5.07;;;2.83;;
22490;SDS011;11412;50.802;4.350;2022-07-15T03:54:03;7.93;;;3.00;;
22490;SDS011;11412;50.802;4.350;2022-07-15T03:56:29;6.53;;;2.90;;
22490;SDS011;11412;50.802;4.350;2022-07-15T03:58:56;5.47;;;3.13;;
22490;SDS011;11412;50.802;4.350;2022-07-15T04:01:22;4.35;;;2.60;;
22490;SDS011;11412;50.802;4.350;2022-07-15T04:03:49;4.43;;;2.60;;
22490;SDS011;11412;50.802;4.350;2022-07-15T04:06:16;5.25;;;2.60;;
22490;SDS011;11412;50.802;4.350;2022-07-15T04:08:42;5.88;;;2.92;;
22490;SDS011;11412;50.802;4.350;2022-07-15T04:11:09;4.90;;;2.70;;
22490;SDS011;11412;50.802;4.350;2022-07-15T04:13:35;4.85;;;2.60;;
22490;SDS011;11412;50.802;4.350;2022-07-15T04:16:01;6.95;;;2.50;;
22490;SDS011;11412;50.802;4.350;2022-07-15T04:18:27;4.85;;;2.58;;
22490;SDS011;11412;50.802;4.350;2022-07-15T04:20:53;4.47;;;2.80;;
22490;SDS011;11412;50.802;4.350;2022-07-15T04:23:18;3.63;;;2.17;;
22490;SDS011;11412;50.802;4.350;2022-07-15T04:25:44;7.70;;;2.63;;
22490;SDS011;11412;50.802;4.350;2022-07-15T04:28:10;5.97;;;2.85;;
22490;SDS011;11412;50.802;4.350;2022-07-15T04:30:35;3.28;;;1.95;;
22490;SDS011;11412;50.802;4.350;2022-07-15T04:33:01;7.53;;;2.63;;
22490;SDS011;11412;50.802;4.350;2022-07-15T04:35:27;5.95;;;2.55;;
22490;SDS011;11412;50.802;4.350;2022-07-15T04:37:52;3.25;;;2.60;;
22490;SDS011;11412;50.802;4.350;2022-07-15T04:40:18;8.00;;;2.78;;
22490;SDS011;11412;50.802;4.350;2022-07-15T04:42:44;4.75;;;2.75;;
22490;SDS011;11412;50.802;4.350;2022-07-15T04:45:10;4.82;;;2.78;;
22490;SDS011;11412;50.802;4.350;2022-07-15T04:47:36;8.32;;;2.40;;
22490;SDS011;11412;50.802;4.350;2022-07-15T04:50:02;5.50;;;2.60;;
22490;SDS011;11412;50.802;4.350;2022-07-15T04:52:46;3.20;;;2.90;;
22490;SDS011;11412;50.802;4.350;2022-07-15T04:55:13;5.72;;;3.28;;
22490;SDS011;11412;50.802;4.350;2022-07-15T04:57:39;6.03;;;2.95;;
22490;SDS011;11412;50.802;4.350;2022-07-15T05:00:07;6.28;;;2.85;;
22490;SDS011;11412;50.802;4.350;2022-07-15T05:02:33;5.75;;;3.55;;
22490;SDS011;11412;50.802;4.350;2022-07-15T05:04:59;6.75;;;3.05;;
22490;SDS011;11412;50.802;4.350;2022-07-15T05:07:25;6.72;;;2.88;;
22490;SDS011;11412;50.802;4.350;2022-07-15T05:09:51;5.75;;;2.60;;
22490;SDS011;11412;50.802;4.350;2022-07-15T05:12:17;6.05;;;2.92;;
22490;SDS011;11412;50.802;4.350;2022-07-15T05:14:43;8.73;;;3.20;;
22490;SDS011;11412;50.802;4.350;2022-07-15T05:17:09;7.25;;;3.08;;
22490;SDS011;11412;50.802;4.350;2022-07-15T05:19:35;5.68;;;2.67;;
22490;SDS011;11412;50.802;4.350;2022-07-15T05:22:01;6.10;;;3.15;;
22490;SDS011;11412;50.802;4.350;2022-07-15T05:24:26;5.55;;;3.08;;
22490;SDS011;11412;50.802;4.350;2022-07-15T05:26:52;4.75;;;3.30;;
22490;SDS011;11412;50.802;4.350;2022-07-15T05:29:18;4.93;;;3.20;;
22490;SDS011;11412;50.802;4.350;2022-07-15T05:31:47;9.60;;;3.20;;
22490;SDS011;11412;50.802;4.350;2022-07-15T05:34:15;4.75;;;3.42;;
22490;SDS011;11412;50.802;4.350;2022-07-15T05:36:41;5.45;;;2.42;;
22490;SDS011;11412;50.802;4.350;2022-07-15T05:39:07;8.52;;;2.90;;
22490;SDS011;11412;50.802;4.350;2022-07-15T05:41:33;9.20;;;3.17;;
22490;SDS011;11412;50.802;4.350;2022-07-15T05:43:59;9.65;;;2.88;;
22490;SDS011;11412;50.802;4.350;2022-07-15T05:46:25;6.75;;;2.80;;
22490;SDS011;11412;50.802;4.350;2022-07-15T05:48:51;6.57;;;2.58;;
22490;SDS011;11412;50.802;4.350;2022-07-15T05:51:16;7.63;;;1.88;;
22490;SDS011;11412;50.802;4.350;2022-07-15T05:53:43;5.25;;;1.80;;
22490;SDS011;11412;50.802;4.350;2022-07-15T05:56:09;5.53;;;1.52;;
22490;SDS011;11412;50.802;4.350;2022-07-15T05:58:34;9.30;;;1.30;;
22490;SDS011;11412;50.802;4.350;2022-07-15T06:01:00;3.22;;;1.33;;
22490;SDS011;11412;50.802;4.350;2022-07-15T06:03:26;5.75;;;1.50;;
22490;SDS011;11412;50.802;4.350;2022-07-15T06:05:51;2.97;;;1.23;;
22490;SDS011;11412;50.802;4.350;2022-07-15T06:08:17;2.85;;;1.10;;
22490;SDS011;11412;50.802;4.350;2022-07-15T06:10:43;3.15;;;1.20;;
22490;SDS011;11412;50.802;4.350;2022-07-15T06:13:09;5.32;;;1.33;;
22490;SDS011;11412;50.802;4.350;2022-07-15T06:15:35;7.30;;;1.30;;
22490;SDS011;11412;50.802;4.350;2022-07-15T06:18:01;3.47;;;1.27;;
22490;SDS011;11412;50.802;4.350;2022-07-15T06:20:27;11.93;;;1.58;;
22490;SDS011;11412;50.802;4.350;2022-07-15T06:22:53;6.72;;;1.75;;
22490;SDS011;11412;50.802;4.350;2022-07-15T06:25:19;6.65;;;1.00;;
22490;SDS011;11412;50.802;4.350;2022-07-15T06:27:45;3.05;;;1.00;;
22490;SDS011;11412;50.802;4.350;2022-07-15T06:30:11;8.63;;;1.13;;
22490;SDS011;11412;50.802;4.350;2022-07-15T06:32:36;3.83;;;1.27;;
22490;SDS011;11412;50.802;4.350;2022-07-15T06:35:02;3.20;;;1.00;;
22490;SDS011;11412;50.802;4.350;2022-07-15T06:37:29;4.45;;;1.02;;
22490;SDS011;11412;50.802;4.350;2022-07-15T06:39:54;4.22;;;1.00;;
22490;SDS011;11412;50.802;4.350;2022-07-15T06:42:21;1.83;;;0.63;;
22490;SDS011;11412;50.802;4.350;2022-07-15T06:44:47;9.70;;;1.40;;
22490;SDS011;11412;50.802;4.350;2022-07-15T06:47:13;8.02;;;1.10;;
22490;SDS011;11412;50.802;4.350;2022-07-15T06:49:38;5.65;;;1.00;;
22490;SDS011;11412;50.802;4.350;2022-07-15T06:52:04;3.80;;;1.10;;
22490;SDS011;11412;50.802;4.350;2022-07-15T06:54:30;3.33;;;1.20;;
22490;SDS011;11412;50.802;4.350;2022-07-15T06:56:57;7.13;;;1.42;;
22490;SDS011;11412;50.802;4.350;2022-07-15T06:59:23;6.68;;;1.17;;
22490;SDS011;11412;50.802;4.350;2022-07-15T07:01:48;4.22;;;1.02;;
22490;SDS011;11412;50.802;4.350;2022-07-15T07:04:14;3.17;;;0.70;;
22490;SDS011;11412;50.802;4.350;2022-07-15T07:06:40;3.05;;;0.80;;
22490;SDS011;11412;50.802;4.350;2022-07-15T07:09:06;3.03;;;1.13;;
22490;SDS011;11412;50.802;4.350;2022-07-15T07:11:31;5.25;;;1.23;;
22490;SDS011;11412;50.802;4.350;2022-07-15T07:13:58;3.47;;;1.00;;
22490;SDS011;11412;50.802;4.350;2022-07-15T07:16:24;4.40;;;1.10;;
22490;SDS011;11412;50.802;4.350;2022-07-15T07:18:51;8.00;;;1.30;;
22490;SDS011;11412;50.802;4.350;2022-07-15T07:21:17;6.25;;;1.38;;
22490;SDS011;11412;50.802;4.350;2022-07-15T07:23:44;2.70;;;1.00;;
22490;SDS011;11412;50.802;4.350;2022-07-15T07:26:10;3.17;;;0.95;;
22490;SDS011;11412;50.802;4.350;2022-07-15T07:28:37;4.90;;;1.08;;
22490;SDS011;11412;50.802;4.350;2022-07-15T07:31:05;5.30;;;0.98;;
22490;SDS011;11412;50.802;4.350;2022-07-15T07:33:35;4.38;;;1.02;;
22490;SDS011;11412;50.802;4.350;2022-07-15T07:36:02;6.30;;;1.10;;
22490;SDS011;11412;50.802;4.350;2022-07-15T07:38:28;4.07;;;1.10;;
22490;SDS011;11412;50.802;4.350;2022-07-15T07:40:54;2.95;;;1.00;;
22490;SDS011;11412;50.802;4.350;2022-07-15T07:43:20;4.07;;;1.00;;
22490;SDS011;11412;50.802;4.350;2022-07-15T07:45:45;2.92;;;1.17;;
22490;SDS011;11412;50.802;4.350;2022-07-15T07:48:12;2.50;;;0.93;;
22490;SDS011;11412;50.802;4.350;2022-07-15T07:50:38;2.60;;;1.10;;
22490;SDS011;11412;50.802;4.350;2022-07-15T07:53:04;2.78;;;0.93;;
22490;SDS011;11412;50.802;4.350;2022-07-15T07:55:30;6.03;;;1.70;;
22490;SDS011;11412;50.802;4.350;2022-07-15T07:57:57;3.88;;;1.35;;
22490;SDS011;11412;50.802;4.350;2022-07-15T08:00:24;8.63;;;1.25;;
22490;SDS011;11412;50.802;4.350;2022-07-15T08:02:52;5.90;;;1.13;;
22490;SDS011;11412;50.802;4.350;2022-07-15T08:05:19;4.20;;;1.23;;
22490;SDS011;11412;50.802;4.350;2022-07-15T08:07:45;5.22;;;0.90;;
22490;SDS011;11412;50.802;4.350;2022-07-15T08:10:11;3.97;;;1.10;;
22490;SDS011;11412;50.802;4.350;2022-07-15T08:12:38;5.72;;;1.20;;
22490;SDS011;11412;50.802;4.350;2022-07-15T08:15:05;3.47;;;1.17;;
22490;SDS011;11412;50.802;4.350;2022-07-15T08:17:32;3.78;;;1.10;;
22490;SDS011;11412;50.802;4.350;2022-07-15T08:19:58;2.63;;;0.90;;
22490;SDS011;11412;50.802;4.350;2022-07-15T08:22:24;2.92;;;1.05;;
22490;SDS011;11412;50.802;4.350;2022-07-15T08:24:49;2.50;;;0.98;;
22490;SDS011;11412;50.802;4.350;2022-07-15T08:27:16;1.80;;;1.00;;
22490;SDS011;11412;50.802;4.350;2022-07-15T08:29:42;5.20;;;1.25;;
22490;SDS011;11412;50.802;4.350;2022-07-15T08:32:09;5.47;;;1.10;;
22490;SDS011;11412;50.802;4.350;2022-07-15T08:34:35;2.83;;;1.02;;
22490;SDS011;11412;50.802;4.350;2022-07-15T08:37:01;3.42;;;1.02;;
22490;SDS011;11412;50.802;4.350;2022-07-15T08:39:26;3.63;;;0.73;;
22490;SDS011;11412;50.802;4.350;2022-07-15T08:41:52;0.98;;;0.90;;
22490;SDS011;11412;50.802;4.350;2022-07-15T08:44:19;3.85;;;1.40;;
22490;SDS011;11412;50.802;4.350;2022-07-15T08:46:45;3.50;;;1.17;;
22490;SDS011;11412;50.802;4.350;2022-07-15T08:49:13;1.45;;;0.90;;
22490;SDS011;11412;50.802;4.350;2022-07-15T08:51:41;4.63;;;1.23;;
22490;SDS011;11412;50.802;4.350;2022-07-15T08:54:09;3.20;;;1.10;;
22490;SDS011;11412;50.802;4.350;2022-07-15T08:56:36;2.85;;;0.77;;
22490;SDS011;11412;50.802;4.350;2022-07-15T08:59:02;2.60;;;0.80;;
22490;SDS011;11412;50.802;4.350;2022-07-15T09:01:30;3.67;;;1.10;;
22490;SDS011;11412;50.802;4.350;2022-07-15T09:03:57;3.28;;;1.00;;
22490;SDS011;11412;50.802;4.350;2022-07-15T09:06:30;4.13;;;1.08;;
22490;SDS011;11412;50.802;4.350;2022-07-15T09:11:56;5.00;;;0.95;;
22490;SDS011;11412;50.802;4.350;2022-07-15T09:14:32;1.17;;;0.80;;
22490;SDS011;11412;50.802;4.350;2022-07-15T09:22:22;1.90;;;0.80;;
22490;SDS011;11412;50.802;4.350;2022-07-15T09:25:07;3.63;;;1.10;;
22490;SDS011;11412;50.802;4.350;2022-07-15T09:27:38;2.53;;;0.90;;
22490;SDS011;11412;50.802;4.350;2022-07-15T09:33:19;2.10;;;0.88;;
22490;SDS011;11412;50.802;4.350;2022-07-15T09:36:20;4.80;;;1.20;;
22490;SDS011;11412;50.802;4.350;2022-07-15T09:41:29;6.95;;;1.15;;
22490;SDS011;11412;50.802;4.350;2022-07-15T09:49:12;4.40;;;1.27;;
22490;SDS011;11412;50.802;4.350;2022-07-15T09:51:52;3.88;;;0.80;;
22490;SDS011;11412;50.802;4.350;2022-07-15T09:54:23;2.90;;;1.08;;
22490;SDS011;11412;50.802;4.350;2022-07-15T09:56:50;1.98;;;0.98;;
22490;SDS011;11412;50.802;4.350;2022-07-15T09:59:17;2.53;;;0.73;;
22490;SDS011;11412;50.802;4.350;2022-07-15T10:01:43;4.50;;;0.80;;
22490;SDS011;11412;50.802;4.350;2022-07-15T10:04:13;4.03;;;1.10;;
22490;SDS011;11412;50.802;4.350;2022-07-15T10:06:40;4.90;;;1.10;;
22490;SDS011;11412;50.802;4.350;2022-07-15T10:09:08;2.53;;;1.17;;
22490;SDS011;11412;50.802;4.350;2022-07-15T10:11:36;6.22;;;1.00;;
22490;SDS011;11412;50.802;4.350;2022-07-15T10:14:30;3.22;;;0.95;;
22490;SDS011;11412;50.802;4.350;2022-07-15T10:28:05;4.18;;;1.17;;
22490;SDS011;11412;50.802;4.350;2022-07-15T10:30:42;3.92;;;1.20;;
22490;SDS011;11412;50.802;4.350;2022-07-15T10:33:10;4.90;;;1.10;;
22490;SDS011;11412;50.802;4.350;2022-07-15T10:43:40;4.18;;;1.20;;
22490;SDS011;11412;50.802;4.350;2022-07-15T10:54:10;1.95;;;1.13;;
22490;SDS011;11412;50.802;4.350;2022-07-15T10:56:45;3.30;;;1.13;;
22490;SDS011;11412;50.802;4.350;2022-07-15T11:01:41;3.78;;;1.00;;
22490;SDS011;11412;50.802;4.350;2022-07-15T11:12:14;2.08;;;1.20;;
22490;SDS011;11412;50.802;4.350;2022-07-15T11:17:15;3.67;;;1.00;;
22490;SDS011;11412;50.802;4.350;2022-07-15T11:20:03;2.70;;;1.10;;
22490;SDS011;11412;50.802;4.350;2022-07-15T11:22:37;2.47;;;1.00;;
22490;SDS011;11412;50.802;4.350;2022-07-15T11:25:05;2.22;;;1.10;;
22490;SDS011;11412;50.802;4.350;2022-07-15T11:27:32;1.15;;;0.80;;
22490;SDS011;11412;50.802;4.350;2022-07-15T11:29:59;2.75;;;0.93;;
22490;SDS011;11412;50.802;4.350;2022-07-15T11:32:29;3.47;;;0.98;;
22490;SDS011;11412;50.802;4.350;2022-07-15T11:34:57;1.92;;;1.02;;
22490;SDS011;11412;50.802;4.350;2022-07-15T11:37:27;1.77;;;0.98;;
22490;SDS011;11412;50.802;4.350;2022-07-15T11:40:05;1.73;;;0.60;;
22490;SDS011;11412;50.802;4.350;2022-07-15T11:42:36;1.67;;;0.90;;
22490;SDS011;11412;50.802;4.350;2022-07-15T11:45:31;1.00;;;0.65;;
22490;SDS011;11412;50.802;4.350;2022-07-15T11:48:04;1.33;;;0.60;;
22490;SDS011;11412;50.802;4.350;2022-07-15T11:50:36;0.80;;;0.73;;
22490;SDS011;11412;50.802;4.350;2022-07-15T11:53:13;2.10;;;0.80;;
22490;SDS011;11412;50.802;4.350;2022-07-15T11:55:50;1.13;;;0.73;;
22490;SDS011;11412;50.802;4.350;2022-07-15T11:58:25;1.90;;;0.80;;
22490;SDS011;11412;50.802;4.350;2022-07-15T12:00:52;3.43;;;0.80;;
22490;SDS011;11412;50.802;4.350;2022-07-15T12:03:18;1.38;;;0.70;;
22490;SDS011;11412;50.802;4.350;2022-07-15T12:05:58;1.38;;;0.88;;
22490;SDS011;11412;50.802;4.350;2022-07-15T12:08:39;1.52;;;0.60;;
22490;SDS011;11412;50.802;4.350;2022-07-15T12:11:10;1.65;;;0.70;;
22490;SDS011;11412;50.802;4.350;2022-07-15T12:18:55;1.02;;;0.60;;
22490;SDS011;11412;50.802;4.350;2022-07-15T12:21:23;1.23;;;0.90;;
22490;SDS011;11412;50.802;4.350;2022-07-15T12:26:37;2.85;;;1.00;;
22490;SDS011;11412;50.802;4.350;2022-07-15T12:29:06;0.95;;;0.63;;
22490;SDS011;11412;50.802;4.350;2022-07-15T12:31:34;3.03;;;0.82;;
22490;SDS011;11412;50.802;4.350;2022-07-15T12:34:00;2.38;;;0.77;;
22490;SDS011;11412;50.802;4.350;2022-07-15T12:36:28;0.98;;;0.60;;
22490;SDS011;11412;50.802;4.350;2022-07-15T12:39:04;0.77;;;0.70;;
22490;SDS011;11412;50.802;4.350;2022-07-15T12:41:33;2.13;;;0.52;;
22490;SDS011;11412;50.802;4.350;2022-07-15T12:44:01;2.58;;;0.73;;
22490;SDS011;11412;50.802;4.350;2022-07-15T12:54:50;0.68;;;0.60;;
22490;SDS011;11412;50.802;4.350;2022-07-15T13:00:03;2.53;;;0.80;;
22490;SDS011;11412;50.802;4.350;2022-07-15T13:02:58;1.42;;;0.60;;
22490;SDS011;11412;50.802;4.350;2022-07-15T13:05:39;1.70;;;0.73;;
22490;SDS011;11412;50.802;4.350;2022-07-15T13:08:06;2.20;;;0.80;;
22490;SDS011;11412;50.802;4.350;2022-07-15T13:10:45;1.67;;;0.80;;
22490;SDS011;11412;50.802;4.350;2022-07-15T13:13:14;2.65;;;0.90;;
22490;SDS011;11412;50.802;4.350;2022-07-15T13:15:42;1.30;;;0.70;;
22490;SDS011;11412;50.802;4.350;2022-07-15T13:18:08;1.50;;;0.63;;
22490;SDS011;11412;50.802;4.350;2022-07-15T13:20:34;2.17;;;1.02;;
22490;SDS011;11412;50.802;4.350;2022-07-15T13:23:00;1.00;;;0.70;;
22490;SDS011;11412;50.802;4.350;2022-07-15T13:25:26;1.45;;;0.80;;
22490;SDS011;11412;50.802;4.350;2022-07-15T13:27:53;2.15;;;1.20;;
22490;SDS011;11412;50.802;4.350;2022-07-15T13:30:19;1.70;;;0.90;;
22490;SDS011;11412;50.802;4.350;2022-07-15T13:32:45;2.30;;;0.93;;
22490;SDS011;11412;50.802;4.350;2022-07-15T13:35:11;1.92;;;0.90;;
22490;SDS011;11412;50.802;4.350;2022-07-15T13:37:38;2.30;;;0.88;;
22490;SDS011;11412;50.802;4.350;2022-07-15T13:40:05;2.40;;;1.35;;
22490;SDS011;11412;50.802;4.350;2022-07-15T13:42:33;1.80;;;0.90;;
22490;SDS011;11412;50.802;4.350;2022-07-15T13:44:58;3.55;;;1.00;;
22490;SDS011;11412;50.802;4.350;2022-07-15T13:47:24;0.80;;;0.80;;
22490;SDS011;11412;50.802;4.350;2022-07-15T13:49:51;2.20;;;1.00;;
22490;SDS011;11412;50.802;4.350;2022-07-15T13:57:37;0.98;;;0.85;;
22490;SDS011;11412;50.802;4.350;2022-07-15T14:00:06;2.05;;;0.82;;
22490;SDS011;11412;50.802;4.350;2022-07-15T14:02:34;4.32;;;0.85;;
22490;SDS011;11412;50.802;4.350;2022-07-15T14:05:00;0.70;;;0.70;;
22490;SDS011;11412;50.802;4.350;2022-07-15T14:07:26;2.17;;;0.90;;
22490;SDS011;11412;50.802;4.350;2022-07-15T14:09:52;2.35;;;1.02;;
22490;SDS011;11412;50.802;4.350;2022-07-15T14:12:18;3.10;;;0.90;;
22490;SDS011;11412;50.802;4.350;2022-07-15T14:14:43;2.08;;;1.23;;
22490;SDS011;11412;50.802;4.350;2022-07-15T14:17:09;4.30;;;1.10;;
22490;SDS011;11412;50.802;4.350;2022-07-15T14:19:34;2.92;;;1.00;;
22490;SDS011;11412;50.802;4.350;2022-07-15T14:22:00;2.38;;;1.00;;
22490;SDS011;11412;50.802;4.350;2022-07-15T14:24:26;1.23;;;0.80;;
22490;SDS011;11412;50.802;4.350;2022-07-15T14:26:51;3.85;;;1.00;;
22490;SDS011;11412;50.802;4.350;2022-07-15T14:29:17;1.50;;;0.90;;
22490;SDS011;11412;50.802;4.350;2022-07-15T14:31:43;3.28;;;1.05;;
22490;SDS011;11412;50.802;4.350;2022-07-15T14:34:09;2.63;;;0.88;;
22490;SDS011;11412;50.802;4.350;2022-07-15T14:36:34;4.68;;;1.00;;
22490;SDS011;11412;50.802;4.350;2022-07-15T14:39:00;2.83;;;1.05;;
22490;SDS011;11412;50.802;4.350;2022-07-15T14:41:27;1.88;;;1.00;;
22490;SDS011;11412;50.802;4.350;2022-07-15T14:43:52;2.38;;;0.98;;
22490;SDS011;11412;50.802;4.350;2022-07-15T14:46:18;4.38;;;1.10;;
22490;SDS011;11412;50.802;4.350;2022-07-15T14:48:44;2.90;;;1.20;;
22490;SDS011;11412;50.802;4.350;2022-07-15T14:51:09;4.03;;;1.20;;
22490;SDS011;11412;50.802;4.350;2022-07-15T14:53:35;3.22;;;1.40;;
22490;SDS011;11412;50.802;4.350;2022-07-15T14:56:01;3.03;;;1.00;;
22490;SDS011;11412;50.802;4.350;2022-07-15T14:58:26;4.60;;;1.33;;
22490;SDS011;11412;50.802;4.350;2022-07-15T15:00:52;2.75;;;1.00;;
22490;SDS011;11412;50.802;4.350;2022-07-15T15:03:18;3.95;;;0.85;;
22490;SDS011;11412;50.802;4.350;2022-07-15T15:05:43;4.28;;;1.00;;
22490;SDS011;11412;50.802;4.350;2022-07-15T15:08:09;1.92;;;1.00;;
22490;SDS011;11412;50.802;4.350;2022-07-15T15:10:36;5.18;;;1.52;;
22490;SDS011;11412;50.802;4.350;2022-07-15T15:13:02;2.20;;;1.08;;
22490;SDS011;11412;50.802;4.350;2022-07-15T15:15:27;2.53;;;1.27;;
22490;SDS011;11412;50.802;4.350;2022-07-15T15:17:54;1.92;;;1.00;;
22490;SDS011;11412;50.802;4.350;2022-07-15T15:20:19;4.47;;;1.00;;
22490;SDS011;11412;50.802;4.350;2022-07-15T15:22:45;3.75;;;1.10;;
22490;SDS011;11412;50.802;4.350;2022-07-15T15:25:11;1.90;;;0.75;;
22490;SDS011;11412;50.802;4.350;2022-07-15T15:27:38;1.65;;;0.82;;
22490;SDS011;11412;50.802;4.350;2022-07-15T15:30:04;4.15;;;1.00;;
22490;SDS011;11412;50.802;4.350;2022-07-15T15:32:32;3.33;;;0.88;;
22490;SDS011;11412;50.802;4.350;2022-07-15T15:34:58;7.13;;;0.90;;
22490;SDS011;11412;50.802;4.350;2022-07-15T15:37:24;2.13;;;0.90;;
22490;SDS011;11412;50.802;4.350;2022-07-15T15:39:49;3.10;;;1.00;;
22490;SDS011;11412;50.802;4.350;2022-07-15T15:42:15;2.42;;;0.77;;
22490;SDS011;11412;50.802;4.350;2022-07-15T15:44:41;1.67;;;0.80;;
22490;SDS011;11412;50.802;4.350;2022-07-15T15:47:07;2.92;;;1.13;;
22490;SDS011;11412;50.802;4.350;2022-07-15T15:49:34;5.80;;;1.20;;
22490;SDS011;11412;50.802;4.350;2022-07-15T15:52:02;2.35;;;0.70;;
22490;SDS011;11412;50.802;4.350;2022-07-15T15:54:29;2.13;;;1.15;;
22490;SDS011;11412;50.802;4.350;2022-07-15T15:56:55;5.35;;;0.73;;
22490;SDS011;11412;50.802;4.350;2022-07-15T15:59:22;3.75;;;1.20;;
22490;SDS011;11412;50.802;4.350;2022-07-15T16:01:47;3.17;;;1.08;;
22490;SDS011;11412;50.802;4.350;2022-07-15T16:04:13;1.95;;;0.95;;
22490;SDS011;11412;50.802;4.350;2022-07-15T16:06:39;4.97;;;0.80;;
22490;SDS011;11412;50.802;4.350;2022-07-15T16:09:04;3.17;;;0.90;;
22490;SDS011;11412;50.802;4.350;2022-07-15T16:11:30;4.10;;;1.00;;
22490;SDS011;11412;50.802;4.350;2022-07-15T16:13:56;2.63;;;0.98;;